Startpagina
METAR-TAF:

METAR-TAF

Vliegvelden :

Luchthaven Odessa

Odessa, Oekraïne

breedte: 46-26N, lengte: 030-46E, hoogte: 42 m

Actueel weer

Dit bericht is 9 minuten geleden gemaakt, om 20:00 UTC
Weinig wind
Temperatuur 8°C
Vochtigheid 53%
Druk 1025 hPa
Zicht 10 km of meer
geen wolken onder 1500 m en geen cumulonimbus

METAR: UKOO 222000Z 00000MPS CAVOK 08/M01 Q1025 R16/090060 NOSIG

Tijdstip: 23:09 (20:09 UTC)

Verwachting

Dit bericht is 3 uur en het 4 minuten geleden gemaakt, om 17:05 UTC
Verwachting geldig van 22 om 18 UTC tot 23 om 18 UTC
Wind 6 kt uit het oostzuidoosten
Zicht: 2100 m
Gebroken wolken op 700 ft
Verspreide wolken op 2000 ft, Cumulonimbus.
nevel
Tijdelijke
van 22 om 21 UTC tot 23 om 06 UTC
Wind 6 kt uit het noordoosten
Wijzigt naar
van 23 om 06 UTC tot 23 om 07 UTC
Zicht: 6000 m

TAF: UKOO 221705Z 2218/2318 11003MPS 2100 BR BKN007 SCT020CB TX16/2312Z TN05/2303Z TEMPO 2221/2306 05003MPS BECMG 2306/2307 6000 NSW

Waarnemingen en weersverwachtingen van meer dan 4000 vliegvelden (METAR en TAF).

De beschikbare stations zijn de gele en rode punten op de kaart.

Ga met uw muis naar het station om de naam te zien.

Klik dan om waarnemingen en weersverwachtingen te zien.

kaart wijzigen: klik op de groene knoppen met een zwart kruis om in te zoomen, op de groene knop met een streepje om uit te zoomen of op de groene pijlen voor aangrenzende kaarten.


METAR-TAF: